Time;durP1;ratioP1;P1;durP2;ratioP2;P2;SDS_P1;SDS_P2;PMS_P1;PMS_P2;Temp;Humidity;BMP_temperature;BMP_pressure;BME280_temperature;BME280_humidity;BME280_pressure;Samples;Min_cycle;Max_cycle;Signal;HPM_P1;HPM_P2
2021/12/20 00:01:42;;;;;;;7.87;1.47;;;7.10;99.90;;;;;;4987340;28;20222;-70
2021/12/20 00:04:08;;;;;;;10.40;1.87;;;7.00;99.90;;;;;;4986971;28;20030;-69
2021/12/20 00:06:34;;;;;;;11.23;2.27;;;7.00;99.90;;;;;;4986421;28;20042;-69
2021/12/20 00:09:00;;;;;;;16.70;3.20;;;;;;;;;;4986598;28;20109;-69
2021/12/20 00:11:26;;;;;;;8.57;1.90;;;;;;;;;;4986525;28;20036;-69
2021/12/20 00:13:51;;;;;;;17.07;2.37;;;7.00;99.90;;;;;;4986832;28;20073;-69
2021/12/20 00:16:17;;;;;;;14.50;1.80;;;7.20;99.90;;;;;;5004291;28;20034;-69
2021/12/20 00:18:43;;;;;;;10.00;1.93;;;6.90;99.90;;;;;;5018022;28;20045;-69
2021/12/20 00:21:10;;;;;;;8.00;1.67;;;6.60;99.90;;;;;;5027811;28;20056;-69
2021/12/20 00:23:36;;;;;;;16.07;2.50;;;6.80;99.90;;;;;;5028626;28;20020;-69
2021/12/20 00:26:02;;;;;;;10.33;1.93;;;6.80;99.90;;;;;;5028453;28;20394;-69
2021/12/20 00:28:28;;;;;;;10.20;1.97;;;;;;;;;;5028565;28;20022;-69
2021/12/20 00:30:54;;;;;;;17.27;3.97;;;7.10;99.90;;;;;;5028850;28;20030;-69
2021/12/20 00:33:19;;;;;;;15.23;2.57;;;7.00;99.90;;;;;;5026680;28;20041;-69
2021/12/20 00:35:46;;;;;;;16.60;3.93;;;7.00;99.90;;;;;;5028677;28;20030;-69
2021/12/20 00:40:56;;;;;;;17.50;2.47;;;6.90;99.90;;;;;;5028821;28;20060;-69
2021/12/20 00:43:22;;;;;;;13.13;1.70;;;6.80;99.90;;;;;;5028030;28;20494;-69
2021/12/20 00:45:47;;;;;;;9.03;2.40;;;;;;;;;;5027196;28;20195;-69
2021/12/20 00:48:13;;;;;;;15.90;2.63;;;6.70;99.90;;;;;;5027901;28;20039;-69
2021/12/20 00:50:41;;;;;;;12.77;1.93;;;6.80;99.90;;;;;;5028658;28;20033;-69
2021/12/20 00:53:07;;;;;;;16.33;1.97;;;;;;;;;;5028519;28;20021;-69
2021/12/20 00:55:32;;;;;;;12.47;2.63;;;6.80;99.90;;;;;;5028324;28;20584;-69
2021/12/20 00:57:59;;;;;;;8.10;2.17;;;6.80;99.90;;;;;;5024969;28;20104;-69
2021/12/20 01:00:40;;;;;;;18.50;2.17;;;6.80;99.90;;;;;;5008738;28;20501;-69
2021/12/20 01:03:08;;;;;;;11.83;2.13;;;6.80;99.90;;;;;;5008577;28;20100;-69
2021/12/20 01:05:34;;;;;;;14.33;2.57;;;6.80;99.90;;;;;;5008490;28;20056;-69
2021/12/20 01:08:03;;;;;;;13.87;2.73;;;6.80;99.90;;;;;;5008765;28;20022;-69
2021/12/20 01:10:29;;;;;;;15.23;1.87;;;6.80;99.90;;;;;;5008822;28;20131;-69
2021/12/20 01:12:59;;;;;;;12.90;2.87;;;6.80;99.90;;;;;;5010245;28;20164;-69
2021/12/20 01:15:35;;;;;;;9.57;2.10;;;6.90;99.90;;;;;;5028461;28;20029;-69
2021/12/20 01:18:03;;;;;;;17.50;2.10;;;6.80;99.90;;;;;;5029965;28;20030;-69
2021/12/20 01:20:30;;;;;;;13.20;2.40;;;6.70;99.90;;;;;;5030615;28;20522;-69
2021/12/20 01:22:56;;;;;;;16.13;2.57;;;6.80;99.90;;;;;;5032231;28;20044;-69
2021/12/20 01:25:22;;;;;;;8.33;2.87;;;6.60;99.90;;;;;;5031356;28;20045;-69
2021/12/20 01:27:48;;;;;;;14.57;2.77;;;;;;;;;;5012415;28;20029;-69
2021/12/20 01:30:16;;;;;;;16.83;2.90;;;6.70;99.90;;;;;;5011899;28;20033;-69
2021/12/20 01:32:42;;;;;;;15.17;2.23;;;6.80;99.90;;;;;;5010334;28;20062;-70
2021/12/20 01:35:10;;;;;;;17.93;3.20;;;6.70;99.90;;;;;;5010789;28;20024;-69
2021/12/20 01:37:36;;;;;;;15.17;3.13;;;6.60;99.90;;;;;;5011967;28;20053;-69
2021/12/20 01:40:04;;;;;;;9.80;2.93;;;6.70;99.90;;;;;;5012095;28;20029;-69
2021/12/20 01:42:32;;;;;;;22.10;3.83;;;6.60;99.90;;;;;;5027763;28;20037;-69
2021/12/20 01:44:58;;;;;;;19.17;3.60;;;;;;;;;;5031253;28;20049;-69
2021/12/20 01:47:31;;;;;;;16.60;2.67;;;6.70;99.90;;;;;;5031105;28;20117;-69
2021/12/20 01:50:03;;;;;;;14.33;2.47;;;6.70;99.90;;;;;;5030284;28;20029;-69
2021/12/20 01:52:39;;;;;;;13.33;1.80;;;6.80;99.90;;;;;;5031053;28;20041;-69
2021/12/20 01:55:06;;;;;;;15.57;3.03;;;5.90;99.90;;;;;;5031461;28;20028;-69
2021/12/20 01:57:32;;;;;;;25.40;4.13;;;6.70;99.90;;;;;;5029489;28;20041;-69
2021/12/20 01:59:57;;;;;;;16.30;3.10;;;6.60;99.90;;;;;;5031546;28;20025;-69
2021/12/20 02:02:24;;;;;;;16.53;3.07;;;;;;;;;;5030523;28;20040;-69
2021/12/20 02:04:51;;;;;;;16.13;2.73;;;6.70;99.90;;;;;;5031472;28;20017;-69
2021/12/20 02:07:46;;;;;;;11.90;2.57;;;6.60;99.90;;;;;;5030861;28;20053;-69
2021/12/20 02:10:12;;;;;;;15.77;3.33;;;6.60;99.90;;;;;;5030956;28;20338;-69
2021/12/20 02:12:38;;;;;;;19.03;2.73;;;6.60;99.90;;;;;;5031079;28;20109;-69
2021/12/20 02:15:03;;;;;;;15.30;3.10;;;6.60;99.90;;;;;;5030412;28;20482;-69
2021/12/20 02:17:29;;;;;;;22.60;3.80;;;6.60;99.90;;;;;;5030952;28;20049;-69
2021/12/20 02:19:59;;;;;;;13.50;2.63;;;6.70;99.90;;;;;;5031141;28;20029;-69
2021/12/20 02:22:25;;;;;;;15.30;2.40;;;6.70;99.90;;;;;;5030669;28;20083;-69
2021/12/20 02:24:51;;;;;;;18.63;3.03;;;6.70;99.90;;;;;;5031076;28;20033;-69
2021/12/20 02:27:17;;;;;;;17.73;3.30;;;6.70;99.90;;;;;;5030428;28;20398;-70
2021/12/20 02:29:57;;;;;;;10.27;2.47;;;6.60;99.90;;;;;;5029698;28;20030;-69
2021/12/20 02:37:53;;;;;;;16.43;2.70;;;6.60;99.90;;;;;;5016109;28;20428;-69
2021/12/20 02:40:20;;;;;;;19.77;2.53;;;6.40;99.90;;;;;;5009531;28;20049;-69
2021/12/20 02:42:48;;;;;;;15.57;4.67;;;6.40;99.90;;;;;;5010970;28;20052;-69
2021/12/20 02:45:15;;;;;;;14.40;2.70;;;6.60;99.90;;;;;;5016933;28;20029;-69
2021/12/20 02:47:44;;;;;;;14.10;2.07;;;6.40;99.90;;;;;;5030422;28;20040;-69
2021/12/20 02:50:11;;;;;;;18.60;2.40;;;6.50;99.90;;;;;;5030362;28;20028;-69
2021/12/20 02:52:37;;;;;;;14.53;2.70;;;;;;;;;;5030109;28;20076;-69
2021/12/20 02:55:05;;;;;;;14.27;2.67;;;6.40;99.90;;;;;;5030341;28;20550;-69
2021/12/20 02:57:34;;;;;;;11.97;2.70;;;6.50;99.90;;;;;;5030134;28;20056;-69
2021/12/20 02:59:59;;;;;;;11.23;2.00;;;6.60;99.90;;;;;;5029398;28;20522;-69
2021/12/20 03:02:25;;;;;;;16.87;2.77;;;6.50;99.90;;;;;;5029610;28;20033;-69
2021/12/20 03:04:50;;;;;;;17.93;3.07;;;6.50;99.90;;;;;;5030202;28;20029;-69
2021/12/20 03:07:22;;;;;;;15.60;2.80;;;6.50;99.90;;;;;;5029571;28;20040;-69
2021/12/20 03:09:56;;;;;;;15.10;2.40;;;6.60;99.90;;;;;;5029999;28;20056;-69
2021/12/20 03:12:24;;;;;;;14.38;2.75;;;;;;;;;;5029450;28;20453;-69
2021/12/20 03:14:55;;;;;;;12.53;2.57;;;;;;;;;;5029581;28;20086;-69
2021/12/20 03:17:21;;;;;;;19.83;3.90;;;;;;;;;;5029651;28;20018;-69
2021/12/20 03:19:46;;;;;;;23.30;3.10;;;6.60;99.90;;;;;;5028715;28;20074;-70
2021/12/20 03:22:12;;;;;;;14.70;2.60;;;;;;;;;;5029386;28;20035;-69
2021/12/20 03:24:37;;;;;;;12.77;2.97;;;6.40;99.90;;;;;;5029732;28;20025;-69
2021/12/20 03:27:04;;;;;;;17.53;2.83;;;6.40;99.90;;;;;;5027854;28;20041;-69
2021/12/20 03:29:29;;;;;;;11.70;1.70;;;6.50;99.90;;;;;;5028905;28;20148;-69
2021/12/20 03:31:55;;;;;;;15.63;2.67;;;6.50;99.90;;;;;;5029698;28;20111;-69
2021/12/20 03:34:21;;;;;;;28.90;3.40;;;;;;;;;;5028442;28;20104;-69
2021/12/20 03:36:47;;;;;;;19.57;4.10;;;6.40;99.90;;;;;;5027823;28;20486;-69
2021/12/20 03:39:13;;;;;;;14.83;3.07;;;;;;;;;;5029225;28;20032;-69
2021/12/20 03:41:39;;;;;;;12.13;2.00;;;6.30;99.90;;;;;;5028863;28;20104;-69
2021/12/20 03:44:06;;;;;;;14.90;3.07;;;6.50;99.90;;;;;;5029518;28;20112;-69
2021/12/20 03:46:32;;;;;;;16.70;3.07;;;6.50;99.90;;;;;;5029186;28;20143;-69
2021/12/20 03:48:58;;;;;;;17.17;2.97;;;6.40;99.90;;;;;;5029492;28;20034;-69
2021/12/20 03:51:23;;;;;;;18.37;2.90;;;6.40;99.90;;;;;;5027563;28;20045;-69
2021/12/20 03:53:49;;;;;;;15.47;3.40;;;6.50;99.90;;;;;;5029058;28;20034;-69
2021/12/20 03:56:14;;;;;;;22.10;4.50;;;6.00;99.90;;;;;;5028442;28;20385;-69
2021/12/20 03:58:40;;;;;;;22.03;3.23;;;6.50;99.90;;;;;;5029231;28;20029;-69
2021/12/20 04:01:10;;;;;;;16.23;2.33;;;6.30;99.90;;;;;;5027737;28;20160;-69
2021/12/20 04:03:35;;;;;;;11.67;2.60;;;6.30;99.90;;;;;;5029016;28;20065;-69
2021/12/20 04:06:04;;;;;;;16.87;2.83;;;6.30;99.90;;;;;;5028891;28;20068;-69
2021/12/20 04:08:29;;;;;;;16.07;2.73;;;6.30;99.90;;;;;;5028515;28;20037;-69
2021/12/20 04:10:55;;;;;;;13.00;3.20;;;6.30;99.90;;;;;;5028502;28;20434;-69
2021/12/20 04:13:21;;;;;;;18.43;2.83;;;;;;;;;;5028553;28;20144;-69
2021/12/20 04:15:46;;;;;;;11.17;2.10;;;6.30;99.90;;;;;;5027808;28;20030;-69
2021/12/20 04:18:12;;;;;;;18.63;2.17;;;;;;;;;;5028789;28;20017;-69
2021/12/20 04:20:38;;;;;;;15.27;2.60;;;;;;;;;;5028786;28;20033;-69
2021/12/20 04:23:04;;;;;;;17.70;2.83;;;;;;;;;;5028868;28;20029;-69
2021/12/20 04:25:30;;;;;;;14.03;2.43;;;6.30;99.90;;;;;;5028079;28;20025;-69
2021/12/20 04:27:55;;;;;;;15.80;2.60;;;6.50;99.90;;;;;;5028917;28;20040;-69
2021/12/20 04:30:21;;;;;;;15.23;2.60;;;6.40;99.90;;;;;;5028511;28;20437;-69
2021/12/20 04:32:47;;;;;;;25.33;2.70;;;6.40;99.90;;;;;;5028863;28;20065;-69
2021/12/20 04:35:15;;;;;;;15.93;2.17;;;6.30;99.90;;;;;;5028172;28;20029;-69
2021/12/20 04:37:44;;;;;;;20.83;2.50;;;6.20;99.90;;;;;;5028829;28;20047;-69
2021/12/20 04:40:16;;;;;;;10.20;2.10;;;6.20;99.90;;;;;;5028103;28;20021;-69
2021/12/20 04:42:41;;;;;;;21.50;3.33;;;6.30;99.90;;;;;;5028705;28;20458;-69
2021/12/20 04:45:07;;;;;;;13.03;2.17;;;6.20;99.90;;;;;;5028506;28;20053;-69
2021/12/20 04:47:33;;;;;;;14.43;2.87;;;6.40;99.90;;;;;;5028512;28;20031;-69
2021/12/20 04:49:59;;;;;;;14.03;2.43;;;;;;;;;;5028380;28;20021;-70
2021/12/20 04:52:26;;;;;;;14.47;1.87;;;6.40;99.90;;;;;;5028818;28;20111;-69
2021/12/20 04:54:52;;;;;;;15.80;2.83;;;6.30;99.90;;;;;;5032162;28;20021;-69
2021/12/20 04:57:17;;;;;;;12.13;2.33;;;6.30;99.90;;;;;;5032144;28;20032;-69
2021/12/20 04:59:43;;;;;;;10.33;1.80;;;;;;;;;;5032435;28;20072;-69
2021/12/20 05:02:09;;;;;;;8.03;1.47;;;6.40;99.90;;;;;;5032210;28;20036;-69
2021/12/20 05:04:35;;;;;;;16.20;2.47;;;;;;;;;;5032233;28;20037;-69
2021/12/20 05:07:02;;;;;;;28.03;3.07;;;6.40;99.90;;;;;;5030761;28;20037;-69
2021/12/20 05:09:35;;;;;;;10.33;2.00;;;6.30;99.90;;;;;;5031636;28;20033;-68
2021/12/20 05:12:10;;;;;;;12.53;2.37;;;6.20;99.90;;;;;;5032108;28;20478;-68
2021/12/20 05:14:36;;;;;;;12.67;2.63;;;6.40;99.90;;;;;;5032113;28;20437;-68
2021/12/20 05:17:02;;;;;;;13.20;2.43;;;6.30;99.90;;;;;;5032063;28;20029;-68
2021/12/20 05:19:27;;;;;;;10.97;2.00;;;;;;;;;;5031882;28;20374;-68
2021/12/20 05:21:53;;;;;;;11.90;2.07;;;6.10;99.90;;;;;;5032051;28;20029;-68
2021/12/20 05:24:18;;;;;;;9.33;1.80;;;6.30;99.90;;;;;;5031241;28;20033;-68
2021/12/20 05:26:44;;;;;;;11.80;2.87;;;;;;;;;;5031707;28;20056;-68
2021/12/20 05:29:10;;;;;;;10.23;1.67;;;6.20;99.90;;;;;;5031923;28;20225;-68
2021/12/20 05:31:36;;;;;;;19.23;3.07;;;;;;;;;;5031718;28;20056;-68
2021/12/20 05:34:02;;;;;;;6.53;1.27;;;6.30;99.90;;;;;;5031884;28;20036;-68
2021/12/20 05:36:28;;;;;;;10.63;1.87;;;;;;;;;;5031624;28;20033;-68
2021/12/20 05:38:53;;;;;;;10.80;2.13;;;6.20;99.90;;;;;;5031310;28;20429;-68
2021/12/20 05:41:19;;;;;;;7.00;2.20;;;6.50;99.90;;;;;;5031365;28;20436;-68
2021/12/20 05:43:45;;;;;;;12.30;2.33;;;6.30;99.90;;;;;;5031453;28;20040;-68
2021/12/20 05:46:11;;;;;;;13.57;1.90;;;6.20;99.90;;;;;;5031472;28;20032;-68
2021/12/20 05:48:37;;;;;;;14.77;2.53;;;;;;;;;;5026952;28;20072;-68
2021/12/20 05:51:03;;;;;;;18.47;3.23;;;;;;;;;;5035336;28;20148;-69
2021/12/20 05:53:29;;;;;;;17.10;3.03;;;6.10;99.90;;;;;;5041752;28;20025;-68
2021/12/20 05:55:54;;;;;;;11.27;1.97;;;6.20;99.90;;;;;;5044592;28;20123;-68
2021/12/20 05:58:20;;;;;;;14.33;2.03;;;;;;;;;;5050300;28;20381;-68
2021/12/20 06:00:46;;;;;;;6.33;1.70;;;6.10;99.90;;;;;;5021846;28;20201;-69
2021/12/20 06:03:12;;;;;;;11.33;2.30;;;;;;;;;;5030772;28;20171;-69
2021/12/20 06:05:42;;;;;;;11.17;2.43;;;6.00;99.90;;;;;;5038545;28;20561;-68
2021/12/20 06:08:08;;;;;;;17.93;2.73;;;6.00;99.90;;;;;;5030933;28;20029;-68
2021/12/20 06:10:35;;;;;;;10.17;1.87;;;5.90;99.90;;;;;;5041133;28;20362;-68
2021/12/20 06:13:02;;;;;;;13.40;2.10;;;5.90;99.90;;;;;;5019184;28;20486;-68
2021/12/20 06:15:28;;;;;;;9.57;2.20;;;;;;;;;;5042974;28;20096;-68
2021/12/20 06:17:54;;;;;;;13.50;1.73;;;5.70;99.90;;;;;;5047704;28;20151;-68
2021/12/20 06:20:20;;;;;;;17.80;3.50;;;;;;;;;;5037428;28;20036;-69
2021/12/20 06:22:45;;;;;;;16.03;2.13;;;6.00;99.90;;;;;;5045412;28;20121;-68
2021/12/20 06:25:12;;;;;;;13.80;2.77;;;;;;;;;;5030758;28;20038;-68
2021/12/20 06:27:38;;;;;;;10.87;2.57;;;6.00;99.90;;;;;;5030838;28;20065;-68
2021/12/20 06:30:04;;;;;;;15.33;3.10;;;5.80;99.90;;;;;;5030610;28;20029;-68
2021/12/20 06:32:30;;;;;;;10.23;2.23;;;5.80;99.90;;;;;;5030563;28;20029;-69
2021/12/20 06:34:56;;;;;;;14.10;1.97;;;5.80;99.90;;;;;;5030609;28;20028;-68
2021/12/20 06:37:22;;;;;;;15.37;1.90;;;5.80;99.90;;;;;;5029843;28;20072;-69
2021/12/20 06:39:47;;;;;;;10.83;2.00;;;5.80;99.90;;;;;;5040113;28;20029;-68
2021/12/20 06:42:13;;;;;;;11.07;2.67;;;5.80;99.90;;;;;;5049233;28;20421;-68
2021/12/20 06:44:39;;;;;;;14.80;2.07;;;;;;;;;;5049642;28;20040;-68
2021/12/20 06:47:04;;;;;;;15.83;2.87;;;5.90;99.90;;;;;;5034029;28;20118;-69
2021/12/20 06:49:30;;;;;;;19.67;2.40;;;;;;;;;;5030454;28;20566;-69
2021/12/20 06:51:59;;;;;;;9.47;2.50;;;5.80;99.90;;;;;;5029837;28;20045;-69
2021/12/20 06:54:25;;;;;;;10.33;2.23;;;;;;;;;;5029732;28;20621;-68
2021/12/20 06:56:51;;;;;;;17.73;2.70;;;5.80;99.90;;;;;;5030345;28;20104;-68
2021/12/20 06:59:17;;;;;;;15.37;2.37;;;;;;;;;;5029665;28;20044;-69
2021/12/20 07:01:42;;;;;;;17.97;2.13;;;5.80;99.90;;;;;;5023329;28;20065;-69
2021/12/20 07:04:08;;;;;;;7.43;1.77;;;5.70;99.90;;;;;;5030209;28;20025;-69
2021/12/20 07:06:34;;;;;;;9.13;1.80;;;5.70;99.90;;;;;;5029258;28;20030;-69
2021/12/20 07:08:59;;;;;;;18.27;3.47;;;5.80;99.90;;;;;;5029589;28;20025;-69
2021/12/20 07:11:25;;;;;;;13.07;2.20;;;;;;;;;;5029285;28;20146;-69
2021/12/20 07:13:54;;;;;;;15.10;3.17;;;5.70;99.90;;;;;;5029661;28;20124;-69
2021/12/20 07:16:20;;;;;;;7.37;1.63;;;;;;;;;;5036022;28;20027;-69
2021/12/20 07:18:45;;;;;;;11.90;1.60;;;5.90;99.90;;;;;;5048831;28;20444;-69
2021/12/20 07:21:11;;;;;;;7.03;2.03;;;;;;;;;;5048168;28;20025;-69
2021/12/20 07:23:37;;;;;;;7.57;1.83;;;;;;;;;;5036931;28;20533;-69
2021/12/20 07:26:04;;;;;;;10.53;2.30;;;5.80;99.90;;;;;;5048686;28;20041;-69
2021/12/20 07:28:29;;;;;;;11.87;2.13;;;5.90;99.90;;;;;;5048535;28;20032;-69
2021/12/20 07:30:55;;;;;;;18.13;2.87;;;;;;;;;;5048457;28;20037;-69
2021/12/20 07:33:21;;;;;;;10.20;2.03;;;6.40;99.90;;;;;;5048157;28;20108;-69
2021/12/20 07:35:48;;;;;;;20.70;2.73;;;5.90;99.90;;;;;;5048220;28;20395;-69
2021/12/20 07:38:14;;;;;;;8.43;1.77;;;5.80;99.90;;;;;;5040126;28;20034;-69
2021/12/20 07:40:45;;;;;;;7.60;2.20;;;5.90;99.90;;;;;;5047631;28;20025;-69
2021/12/20 07:43:14;;;;;;;7.43;1.43;;;6.30;99.90;;;;;;5031446;28;20036;-69
2021/12/20 07:45:40;;;;;;;8.40;1.23;;;;;;;;;;5034730;28;20056;-68
2021/12/20 07:48:05;;;;;;;11.20;1.90;;;6.00;99.90;;;;;;5048031;28;20025;-70
2021/12/20 07:50:31;;;;;;;10.23;1.83;;;;;;;;;;5048159;28;20622;-69
2021/12/20 07:52:57;;;;;;;14.50;1.93;;;5.80;99.90;;;;;;5046494;28;20057;-69
2021/12/20 07:55:23;;;;;;;10.80;2.27;;;5.80;99.90;;;;;;5046651;28;20037;-71
2021/12/20 07:57:50;;;;;;;9.53;1.50;;;5.80;99.90;;;;;;5042922;28;20083;-69
2021/12/20 08:00:16;;;;;;;8.90;1.73;;;5.80;99.90;;;;;;5027581;28;20025;-69
2021/12/20 08:02:42;;;;;;;11.20;1.60;;;6.30;99.90;;;;;;5032578;28;20024;-69
2021/12/20 08:05:08;;;;;;;14.70;2.37;;;;;;;;;;5048090;28;20037;-69
2021/12/20 08:07:34;;;;;;;10.53;1.60;;;;;;;;;;5033267;28;20030;-69
2021/12/20 08:09:59;;;;;;;9.07;1.20;;;5.90;99.90;;;;;;5040294;28;20466;-69
2021/12/20 08:12:25;;;;;;;4.07;1.57;;;5.80;99.90;;;;;;5018061;28;20385;-69
2021/12/20 08:14:50;;;;;;;9.90;2.63;;;5.90;99.90;;;;;;5013867;28;20045;-69
2021/12/20 08:17:16;;;;;;;12.90;1.77;;;;;;;;;;5025433;28;20025;-69
2021/12/20 08:19:42;;;;;;;12.53;2.00;;;5.90;99.90;;;;;;5026247;28;20108;-69
2021/12/20 08:22:07;;;;;;;12.27;2.40;;;5.80;99.90;;;;;;5029837;28;20698;-69
2021/12/20 08:24:33;;;;;;;13.27;2.40;;;;;;;;;;5045873;28;20044;-69
2021/12/20 08:26:59;;;;;;;12.37;1.90;;;6.10;99.90;;;;;;5024106;28;20037;-69
2021/12/20 08:29:26;;;;;;;7.67;1.73;;;;;;;;;;5032685;28;20037;-69
2021/12/20 08:31:51;;;;;;;12.00;1.90;;;6.00;99.90;;;;;;5032191;28;20059;-69
2021/12/20 08:34:17;;;;;;;9.97;3.13;;;;;;;;;;5032536;28;20029;-69
2021/12/20 08:36:43;;;;;;;13.17;1.90;;;6.00;99.90;;;;;;5032636;28;20386;-69
2021/12/20 08:39:14;;;;;;;8.07;1.37;;;;;;;;;;5032832;28;20167;-69
2021/12/20 08:41:40;;;;;;;6.57;1.37;;;;;;;;;;5032538;28;20108;-69
2021/12/20 08:44:05;;;;;;;6.43;1.60;;;6.00;99.90;;;;;;5033048;28;20113;-69
2021/12/20 08:46:31;;;;;;;12.30;2.10;;;;;;;;;;5051317;28;20122;-69
2021/12/20 08:48:56;;;;;;;9.30;1.60;;;6.10;99.90;;;;;;5042363;28;20033;-69
2021/12/20 08:51:25;;;;;;;10.83;2.27;;;6.00;99.90;;;;;;5030601;28;20065;-69
2021/12/20 08:53:51;;;;;;;9.93;1.67;;;6.20;99.90;;;;;;5032174;28;20018;-69
2021/12/20 08:56:17;;;;;;;10.17;1.40;;;6.10;99.90;;;;;;5030683;28;20103;-69
2021/12/20 08:58:44;;;;;;;11.77;2.20;;;6.30;99.90;;;;;;5030930;28;20049;-68
2021/12/20 09:01:10;;;;;;;8.13;2.27;;;6.10;99.90;;;;;;5031651;28;20064;-69
2021/12/20 09:03:35;;;;;;;14.20;1.93;;;6.10;99.90;;;;;;5032009;28;20057;-69
2021/12/20 09:06:01;;;;;;;11.60;1.77;;;;;;;;;;5032246;28;20320;-69
2021/12/20 09:08:28;;;;;;;11.70;1.83;;;6.20;99.90;;;;;;5019198;28;20532;-69
2021/12/20 09:10:54;;;;;;;15.83;2.03;;;6.30;99.90;;;;;;5012203;28;20427;-69
2021/12/20 09:13:20;;;;;;;11.30;2.43;;;6.30;99.90;;;;;;5028908;28;20087;-69
2021/12/20 09:15:45;;;;;;;12.33;2.00;;;6.10;99.90;;;;;;5031627;28;20116;-69
2021/12/20 09:18:11;;;;;;;10.63;2.50;;;;;;;;;;5031292;28;20427;-68
2021/12/20 09:20:37;;;;;;;10.73;1.70;;;;;;;;;;5031457;28;20029;-69
2021/12/20 09:23:06;;;;;;;7.10;3.63;;;6.20;99.90;;;;;;5032041;28;20026;-69
2021/12/20 09:25:35;;;;;;;12.77;2.87;;;6.50;99.90;;;;;;5031673;28;20674;-69
2021/12/20 09:28:02;;;;;;;9.37;2.07;;;6.20;99.90;;;;;;5031327;28;20025;-69
2021/12/20 09:30:29;;;;;;;6.70;1.83;;;6.80;99.90;;;;;;5030972;28;20029;-69
2021/12/20 09:32:55;;;;;;;4.50;1.17;;;;;;;;;;5031600;28;20060;-69
2021/12/20 09:35:21;;;;;;;12.17;1.93;;;6.40;99.90;;;;;;5031048;28;20133;-67
2021/12/20 09:37:50;;;;;;;13.83;1.80;;;6.40;99.90;;;;;;5045789;28;20032;-68
2021/12/20 09:40:16;;;;;;;11.20;1.90;;;6.40;99.90;;;;;;5030899;28;20134;-68
2021/12/20 09:42:48;;;;;;;15.90;2.87;;;6.00;99.90;;;;;;5031677;28;20056;-68
2021/12/20 09:45:17;;;;;;;6.63;1.30;;;6.40;99.90;;;;;;5030364;28;20025;-68
2021/12/20 09:47:43;;;;;;;10.13;1.80;;;6.50;99.90;;;;;;5031605;28;20465;-67
2021/12/20 09:50:09;;;;;;;11.27;2.50;;;6.60;99.90;;;;;;5031583;28;20033;-68
2021/12/20 09:52:34;;;;;;;9.40;1.40;;;6.30;99.90;;;;;;5020317;28;20046;-68
2021/12/20 09:55:00;;;;;;;16.57;2.37;;;;;;;;;;5031220;28;20041;-68
2021/12/20 09:57:26;;;;;;;10.17;2.10;;;6.20;99.90;;;;;;5030827;28;20105;-69
2021/12/20 09:59:52;;;;;;;9.23;1.83;;;6.60;99.90;;;;;;5030973;28;20441;-67
2021/12/20 10:02:20;;;;;;;12.77;1.93;;;6.20;99.90;;;;;;5031288;28;20037;-67
2021/12/20 10:04:46;;;;;;;14.47;2.60;;;6.10;99.90;;;;;;5013482;28;20022;-68
2021/12/20 10:07:12;;;;;;;6.03;1.63;;;6.20;99.90;;;;;;5010941;28;20461;-67
2021/12/20 10:09:40;;;;;;;3.93;1.43;;;6.00;99.90;;;;;;5024783;28;20131;-68
2021/12/20 10:12:21;;;;;;;13.57;2.00;;;6.00;99.90;;;;;;5025458;28;20453;-68
2021/12/20 10:15:10;;;;;;;10.67;1.57;;;6.10;99.90;;;;;;5030614;28;20501;-68
2021/12/20 10:17:55;;;;;;;8.03;1.70;;;6.00;99.90;;;;;;5030007;28;20030;-68
2021/12/20 10:20:30;;;;;;;14.80;1.63;;;6.00;99.90;;;;;;5030585;28;20067;-67
2021/12/20 10:23:14;;;;;;;10.70;2.17;;;6.20;99.90;;;;;;5030894;28;20458;-68
2021/12/20 10:25:42;;;;;;;7.65;2.10;;;6.20;99.90;;;;;;5029669;28;20068;-68
2021/12/20 10:28:12;;;;;;;10.87;1.90;;;6.10;99.90;;;;;;5029618;28;20057;-67
2021/12/20 10:30:46;;;;;;;11.63;1.77;;;6.10;99.90;;;;;;5030148;28;20036;-68
2021/12/20 10:33:17;;;;;;;;;;;6.20;99.90;;;;;;5028192;28;20427;-68
2021/12/20 10:35:49;;;;;;;11.80;2.43;;;6.30;99.90;;;;;;5030276;28;19912;-68
2021/12/20 10:38:33;;;;;;;23.60;3.23;;;6.50;99.90;;;;;;5028052;28;20108;-68
2021/12/20 10:41:04;;;;;;;;;;;6.00;99.90;;;;;;5028492;28;20394;-68
2021/12/20 10:43:36;;;;;;;21.30;2.87;;;6.40;99.90;;;;;;5029833;28;19905;-67
2021/12/20 10:46:13;;;;;;;14.03;2.97;;;6.40;99.90;;;;;;5030123;28;20039;-67
2021/12/20 10:48:40;;;;;;;17.20;2.57;;;6.20;99.90;;;;;;5026375;28;20355;-68
2021/12/20 10:51:14;;;;;;;14.07;2.10;;;6.30;99.90;;;;;;5029043;28;20084;-68
2021/12/20 10:53:45;;;;;;;12.57;2.33;;;6.30;99.90;;;;;;5029428;28;20104;-67
2021/12/20 10:56:11;;;;;;;14.97;4.50;;;6.20;99.90;;;;;;5030232;28;20095;-68
2021/12/20 10:58:38;;;;;;;9.53;2.37;;;6.10;99.90;;;;;;5029169;28;20013;-69
2021/12/20 11:01:36;;;;;;;15.03;2.73;;;5.70;99.90;;;;;;5035126;28;20123;-68
2021/12/20 11:04:16;;;;;;;15.07;3.07;;;6.30;99.90;;;;;;5048564;28;20078;-68
2021/12/20 11:09:04;;;;;;;17.80;2.20;;;6.10;99.90;;;;;;5048256;28;20029;-68
2021/12/20 11:09:47;;;;;;;14.83;3.00;;;6.30;99.90;;;;;;5042711;28;20131;-67
2021/12/20 11:12:33;;;;;;;18.80;2.33;;;6.30;99.90;;;;;;5042069;28;20094;-67
2021/12/20 11:15:10;;;;;;;19.73;3.37;;;6.30;99.90;;;;;;5048933;28;20044;-67
2021/12/20 11:17:41;;;;;;;13.33;2.60;;;6.40;99.90;;;;;;5044214;28;20108;-68
2021/12/20 11:20:07;;;;;;;18.90;4.07;;;6.40;99.90;;;;;;5047376;28;20109;-68
2021/12/20 11:22:33;;;;;;;15.40;2.93;;;6.40;99.90;;;;;;5044406;28;20120;-68
2021/12/20 11:25:00;;;;;;;14.23;3.40;;;;;;;;;;5045549;28;20066;-68
2021/12/20 11:27:32;;;;;;;9.47;3.17;;;6.30;99.90;;;;;;5034629;28;20046;-68
2021/12/20 11:30:08;;;;;;;18.07;3.47;;;6.40;99.90;;;;;;5029630;28;20358;-68
2021/12/20 11:32:34;;;;;;;27.30;4.20;;;6.40;99.90;;;;;;5029280;28;20036;-68
2021/12/20 11:35:00;;;;;;;16.67;2.87;;;6.40;99.90;;;;;;5034604;28;20025;-68
2021/12/20 11:37:27;;;;;;;18.00;3.47;;;6.30;99.90;;;;;;5029593;28;20430;-68
2021/12/20 11:39:54;;;;;;;10.97;3.27;;;6.30;99.90;;;;;;5024794;28;20427;-68
2021/12/20 11:42:21;;;;;;;15.93;2.90;;;6.20;99.90;;;;;;5031871;28;20099;-68
2021/12/20 11:44:48;;;;;;;18.37;4.30;;;6.30;99.90;;;;;;5034351;28;20040;-68
2021/12/20 11:47:48;;;;;;;18.40;3.30;;;6.50;99.90;;;;;;5026105;28;20238;-68
2021/12/20 11:50:17;;;;;;;14.03;3.57;;;6.40;99.90;;;;;;5023923;28;20037;-68
2021/12/20 11:52:45;;;;;;;20.03;2.20;;;6.40;99.90;;;;;;5018771;28;20080;-69
2021/12/20 11:55:30;;;;;;;16.47;3.40;;;6.40;99.90;;;;;;5020243;28;20028;-68
2021/12/20 11:58:05;;;;;;;17.50;2.63;;;6.50;99.90;;;;;;5012555;28;20137;-68
2021/12/20 12:00:39;;;;;;;19.53;3.33;;;6.40;99.90;;;;;;5017365;28;20350;-69
2021/12/20 12:03:19;;;;;;;25.27;5.18;;;6.50;99.90;;;;;;5015967;28;20048;-68
2021/12/20 12:06:05;;;;;;;19.17;4.37;;;6.40;99.90;;;;;;5019021;28;20046;-68
2021/12/20 12:08:55;;;;;;;17.30;2.83;;;6.50;99.90;;;;;;5015461;28;20152;-68
2021/12/20 12:11:24;;;;;;;19.60;2.73;;;6.50;99.90;;;;;;5028530;28;20017;-69
2021/12/20 12:14:06;;;;;;;19.10;2.30;;;6.50;99.90;;;;;;5028940;28;20095;-68
2021/12/20 12:17:08;;;;;;;21.97;3.33;;;6.50;99.90;;;;;;5029393;28;20032;-67
2021/12/20 12:19:47;;;;;;;12.60;2.47;;;6.20;99.90;;;;;;5030837;28;20056;-68
2021/12/20 12:22:32;;;;;;;15.90;3.43;;;6.40;99.90;;;;;;5025595;28;20084;-67
2021/12/20 12:24:58;;;;;;;12.47;2.13;;;;;;;;;;5016569;28;20061;-67
2021/12/20 12:27:29;;;;;;;16.87;2.43;;;6.50;99.90;;;;;;5028323;28;20084;-67
2021/12/20 12:30:30;;;;;;;15.37;1.63;;;6.40;99.90;;;;;;5046414;28;20361;-67
2021/12/20 12:32:56;;;;;;;23.70;3.97;;;;;;;;;;5005865;28;20037;-68
2021/12/20 12:35:37;;;;;;;10.03;1.90;;;6.20;99.90;;;;;;5028110;28;20014;-66
2021/12/20 12:38:14;;;;;;;15.80;3.70;;;6.20;99.90;;;;;;5026326;28;20022;-66
2021/12/20 12:40:40;;;;;;;11.50;2.93;;;;;;;;;;5028272;28;20026;-67
2021/12/20 12:43:06;;;;;;;14.77;3.23;;;;;;;;;;5027027;28;20009;-67
2021/12/20 12:45:52;;;;;;;9.97;1.67;;;6.30;99.90;;;;;;5027245;28;20132;-67
2021/12/20 12:48:43;;;;;;;14.60;2.30;;;6.40;99.90;;;;;;5027807;28;20033;-68
2021/12/20 12:51:18;;;;;;;16.83;3.27;;;6.40;99.90;;;;;;5021706;28;20108;-68
2021/12/20 12:53:53;;;;;;;13.40;5.00;;;6.40;99.90;;;;;;5011666;28;20030;-67
2021/12/20 12:56:27;;;;;;;18.87;4.00;;;6.40;99.90;;;;;;5026617;28;20025;-68
2021/12/20 12:59:11;;;;;;;21.57;3.60;;;6.50;99.90;;;;;;5029416;28;20461;-68
2021/12/20 13:01:39;;;;;;;21.20;3.80;;;6.50;99.90;;;;;;5027575;28;20030;-67
2021/12/20 13:04:05;;;;;;;16.07;3.83;;;;;;;;;;5041227;28;20037;-68
2021/12/20 13:06:31;;;;;;;12.20;2.70;;;;;;;;;;5045360;28;20040;-67
2021/12/20 13:08:59;;;;;;;10.30;2.30;;;6.40;99.90;;;;;;5041587;28;20021;-68
2021/12/20 13:11:26;;;;;;;9.57;2.10;;;6.30;99.90;;;;;;5046130;28;20033;-68
2021/12/20 13:14:06;;;;;;;9.47;1.90;;;6.30;99.90;;;;;;5047758;28;20029;-67
2021/12/20 13:16:35;;;;;;;10.90;2.53;;;;;;;;;;5025851;28;20056;-68
2021/12/20 13:19:00;;;;;;;10.27;1.90;;;6.20;99.90;;;;;;5044274;28;20028;-68
2021/12/20 13:21:37;;;;;;;8.83;2.07;;;6.10;99.90;;;;;;5051181;28;20441;-68
2021/12/20 13:24:14;;;;;;;9.57;2.70;;;6.00;99.90;;;;;;5049693;28;20499;-67